createdAt,value
2018-11-29T00:00:31.295Z,6.70
2018-11-29T00:02:59.954Z,6.70
2018-11-29T00:05:28.519Z,6.60
2018-11-29T00:07:57.111Z,6.60
2018-11-29T00:10:25.711Z,6.60
2018-11-29T00:12:54.372Z,6.70
2018-11-29T00:15:22.989Z,6.70
2018-11-29T00:17:51.650Z,6.70
2018-11-29T00:20:20.948Z,6.70
2018-11-29T00:22:50.852Z,6.70
2018-11-29T00:25:20.317Z,6.70
2018-11-29T00:27:49.307Z,6.70
2018-11-29T00:30:20.775Z,6.70
2018-11-29T00:32:49.835Z,6.70
2018-11-29T00:35:19.071Z,6.70
2018-11-29T00:37:47.800Z,6.70
2018-11-29T00:40:18.410Z,6.60
2018-11-29T00:42:47.041Z,6.60
2018-11-29T00:45:19.427Z,6.60
2018-11-29T00:47:48.403Z,6.60
2018-11-29T00:50:17.751Z,6.60
2018-11-29T00:52:47.336Z,6.60
2018-11-29T00:55:17.867Z,6.60
2018-11-29T00:57:46.620Z,6.60
2018-11-29T01:00:23.002Z,6.60
2018-11-29T01:02:51.706Z,6.60
2018-11-29T01:05:20.404Z,6.60
2018-11-29T01:07:49.040Z,6.60
2018-11-29T01:10:18.207Z,6.50
2018-11-29T01:12:47.325Z,6.50
2018-11-29T01:15:17.797Z,6.50
2018-11-29T01:17:47.397Z,6.50
2018-11-29T01:20:16.931Z,6.50
2018-11-29T01:22:45.509Z,6.50
2018-11-29T01:25:15.004Z,6.50
2018-11-29T01:27:45.184Z,6.50
2018-11-29T01:30:15.642Z,6.40
2018-11-29T01:32:44.333Z,6.40
2018-11-29T01:35:13.917Z,6.40
2018-11-29T01:37:42.605Z,6.40
2018-11-29T01:40:17.184Z,6.30
2018-11-29T01:43:01.984Z,6.30
2018-11-29T01:45:30.716Z,6.30
2018-11-29T01:47:59.402Z,6.30
2018-11-29T01:50:28.235Z,6.30
2018-11-29T01:52:56.985Z,6.30
2018-11-29T01:55:25.658Z,6.30
2018-11-29T01:57:54.310Z,6.30
2018-11-29T02:00:24.205Z,6.30
2018-11-29T02:02:53.444Z,6.30
2018-11-29T02:05:22.151Z,6.30
2018-11-29T02:07:50.832Z,6.30
2018-11-29T02:10:25.900Z,6.30
2018-11-29T02:12:55.085Z,6.20
2018-11-29T02:15:23.825Z,6.20
2018-11-29T02:17:52.522Z,6.20
2018-11-29T02:20:21.558Z,6.10
2018-11-29T02:22:50.306Z,6.10
2018-11-29T02:25:19.065Z,6.10
2018-11-29T02:27:47.833Z,6.10
2018-11-29T02:30:20.718Z,6.10
2018-11-29T02:32:49.527Z,6.10
2018-11-29T02:35:18.624Z,6.10
2018-11-29T02:37:47.383Z,6.00
2018-11-29T02:40:17.050Z,6.00
2018-11-29T02:42:46.106Z,6.10
2018-11-29T02:45:25.181Z,6.10
2018-11-29T02:47:53.986Z,6.10
2018-11-29T02:50:22.922Z,6.10
2018-11-29T02:52:56.061Z,6.10
2018-11-29T02:55:24.923Z,6.10
2018-11-29T02:57:53.607Z,6.10
2018-11-29T03:00:22.434Z,6.20
2018-11-29T03:02:51.110Z,6.10
2018-11-29T03:05:19.832Z,6.10
2018-11-29T03:07:48.520Z,6.10
2018-11-29T03:10:22.614Z,6.10
2018-11-29T03:12:51.452Z,6.10
2018-11-29T03:15:20.351Z,6.10
2018-11-29T03:17:49.208Z,6.10
2018-11-29T03:20:17.916Z,6.10
2018-11-29T03:22:46.672Z,6.10
2018-11-29T03:25:16.194Z,6.10
2018-11-29T03:27:45.257Z,6.00
2018-11-29T03:30:14.962Z,6.00
2018-11-29T03:32:43.702Z,6.00
2018-11-29T03:35:13.208Z,6.00
2018-11-29T03:37:42.058Z,6.00
2018-11-29T03:40:13.955Z,6.00
2018-11-29T03:42:43.676Z,6.00
2018-11-29T03:45:14.967Z,5.90
2018-11-29T03:47:44.923Z,5.90
2018-11-29T03:50:16.433Z,5.90
2018-11-29T03:52:45.327Z,6.00
2018-11-29T03:55:14.190Z,6.00
2018-11-29T03:57:43.310Z,5.90
2018-11-29T04:00:15.930Z,5.90
2018-11-29T04:02:45.473Z,5.80
2018-11-29T04:05:14.540Z,5.80
2018-11-29T04:07:43.222Z,5.80
2018-11-29T04:10:13.854Z,5.80
2018-11-29T04:12:42.740Z,5.80
2018-11-29T04:15:13.467Z,5.80
2018-11-29T04:17:42.199Z,5.90
2018-11-29T04:20:13.155Z,5.90
2018-11-29T04:22:41.890Z,5.90
2018-11-29T04:25:11.801Z,5.90
2018-11-29T04:27:40.644Z,5.80
2018-11-29T04:30:11.009Z,5.80
2018-11-29T04:32:39.926Z,5.80
2018-11-29T04:35:09.594Z,5.80
2018-11-29T04:37:38.537Z,5.80
2018-11-29T04:40:15.227Z,5.80
2018-11-29T04:42:44.012Z,5.80
2018-11-29T04:45:13.705Z,5.80
2018-11-29T04:47:43.470Z,5.90
2018-11-29T04:50:15.402Z,5.90
2018-11-29T04:52:44.204Z,5.90
2018-11-29T04:55:12.982Z,5.90
2018-11-29T04:57:41.861Z,5.90
2018-11-29T05:00:14.618Z,5.90
2018-11-29T05:02:43.540Z,5.90
2018-11-29T05:05:12.666Z,5.90
2018-11-29T05:07:41.464Z,5.90
2018-11-29T05:10:11.991Z,6.00
2018-11-29T05:12:40.658Z,5.90
2018-11-29T05:15:11.025Z,5.90
2018-11-29T05:17:39.750Z,5.80
2018-11-29T05:20:08.792Z,5.80
2018-11-29T05:22:37.477Z,5.90
2018-11-29T05:25:07.187Z,5.90
2018-11-29T05:27:36.387Z,5.90
2018-11-29T05:30:08.205Z,5.90
2018-11-29T05:32:36.999Z,5.80
2018-11-29T05:35:07.272Z,5.80
2018-11-29T05:37:36.098Z,5.80
2018-11-29T05:40:05.328Z,5.90
2018-11-29T05:42:33.972Z,5.80
2018-11-29T05:45:02.632Z,5.70
2018-11-29T05:47:31.349Z,5.70
2018-11-29T05:50:00.186Z,5.80
2018-11-29T05:52:28.935Z,5.80
2018-11-29T05:54:57.587Z,5.80
2018-11-29T05:57:26.266Z,5.90
2018-11-29T05:59:55.138Z,5.90
2018-11-29T06:02:23.767Z,7.00
2018-11-29T06:04:52.433Z,5.90
2018-11-29T06:07:21.208Z,5.90
2018-11-29T06:09:49.935Z,5.90
2018-11-29T06:12:20.051Z,5.90
2018-11-29T06:14:48.818Z,5.80
2018-11-29T06:17:17.467Z,5.90
2018-11-29T06:19:46.961Z,5.80
2018-11-29T06:22:15.656Z,5.80
2018-11-29T06:24:44.355Z,5.80
2018-11-29T06:27:14.928Z,5.90
2018-11-29T06:29:43.630Z,5.90
2018-11-29T06:32:12.311Z,5.90
2018-11-29T06:34:41.226Z,5.90
2018-11-29T06:37:09.859Z,5.90
2018-11-29T06:39:38.510Z,6.00
2018-11-29T06:42:07.194Z,6.00
2018-11-29T06:44:35.883Z,6.00
2018-11-29T06:47:04.590Z,6.00
2018-11-29T06:49:33.207Z,6.00
2018-11-29T06:52:01.895Z,5.90
2018-11-29T06:54:30.565Z,6.00
2018-11-29T06:56:59.205Z,6.00
2018-11-29T06:59:27.871Z,5.90
2018-11-29T07:01:56.528Z,5.90
2018-11-29T07:04:25.167Z,6.00
2018-11-29T07:06:53.779Z,6.00
2018-11-29T07:09:22.406Z,6.00
2018-11-29T07:11:51.203Z,5.90
2018-11-29T07:14:19.832Z,5.90
2018-11-29T07:16:48.541Z,5.90
2018-11-29T07:19:17.300Z,5.90
2018-11-29T07:21:52.420Z,5.90
2018-11-29T07:24:21.094Z,5.80
2018-11-29T07:26:49.747Z,5.90
2018-11-29T07:29:18.564Z,5.80
2018-11-29T07:31:47.249Z,5.80
2018-11-29T07:34:15.900Z,5.70
2018-11-29T07:36:44.646Z,5.80
2018-11-29T07:39:13.416Z,5.80
2018-11-29T07:44:23.871Z,5.70
2018-11-29T07:46:52.629Z,5.70
2018-11-29T07:49:21.359Z,5.80
2018-11-29T07:51:50.059Z,5.70
2018-11-29T07:54:18.905Z,5.70
2018-11-29T07:56:47.692Z,5.80
2018-11-29T07:59:16.558Z,5.80
2018-11-29T08:01:45.969Z,5.80
2018-11-29T08:04:15.554Z,5.80
2018-11-29T08:06:44.765Z,5.80
2018-11-29T08:09:13.614Z,5.90
2018-11-29T08:11:43.991Z,5.90
2018-11-29T08:14:13.062Z,5.90
2018-11-29T08:16:41.944Z,5.90
2018-11-29T08:19:35.220Z,5.90
2018-11-29T08:22:11.330Z,6.00
2018-11-29T08:24:42.561Z,5.90
2018-11-29T08:27:19.698Z,6.00
2018-11-29T08:29:59.664Z,6.00
2018-11-29T08:32:33.982Z,6.00
2018-11-29T08:35:02.808Z,7.40
2018-11-29T08:37:31.468Z,6.10
2018-11-29T08:40:00.341Z,6.10
2018-11-29T08:45:17.859Z,6.20
2018-11-29T08:47:47.116Z,6.30
2018-11-29T08:50:16.255Z,6.30
2018-11-29T08:52:46.028Z,6.30
2018-11-29T08:55:20.811Z,6.30
2018-11-29T08:57:50.437Z,6.40
2018-11-29T09:00:22.565Z,6.40
2018-11-29T09:02:54.124Z,6.50
2018-11-29T09:08:05.290Z,6.50
2018-11-29T09:10:34.213Z,6.50
2018-11-29T09:13:03.307Z,6.50
2018-11-29T09:15:32.714Z,6.50
2018-11-29T09:18:01.824Z,6.50
2018-11-29T09:20:31.122Z,6.50
2018-11-29T09:23:00.894Z,6.50
2018-11-29T09:25:30.276Z,6.50
2018-11-29T09:27:59.104Z,6.50
2018-11-29T09:30:44.443Z,6.50
2018-11-29T09:33:32.855Z,6.50
2018-11-29T09:36:01.883Z,6.50
2018-11-29T09:38:32.208Z,6.50
2018-11-29T09:41:01.262Z,6.50
2018-11-29T09:43:30.354Z,6.60
2018-11-29T09:45:59.724Z,6.60
2018-11-29T09:48:29.106Z,6.70
2018-11-29T09:50:58.233Z,6.70
2018-11-29T09:53:26.984Z,6.80
2018-11-29T09:55:55.989Z,6.80
2018-11-29T09:58:25.215Z,6.80
2018-11-29T10:00:54.759Z,6.80
2018-11-29T10:03:23.562Z,6.70
2018-11-29T10:05:52.614Z,6.70
2018-11-29T10:08:26.060Z,6.70
2018-11-29T10:10:50.869Z,6.80
2018-11-29T10:13:19.880Z,6.80
2018-11-29T10:15:59.504Z,6.90
2018-11-29T10:18:29.999Z,6.90
2018-11-29T10:21:06.828Z,6.90
2018-11-29T10:23:52.808Z,6.90
2018-11-29T10:26:50.075Z,7.00
2018-11-29T10:29:19.030Z,7.00
2018-11-29T10:31:47.863Z,7.00
2018-11-29T10:34:16.648Z,7.10
2018-11-29T10:36:45.611Z,7.10
2018-11-29T10:39:14.595Z,7.20
2018-11-29T10:41:43.466Z,7.20
2018-11-29T10:44:12.271Z,7.20
2018-11-29T10:46:41.236Z,7.30
2018-11-29T10:51:47.346Z,7.30
2018-11-29T10:54:16.908Z,7.40
2018-11-29T10:56:44.820Z,7.40
2018-11-29T10:59:13.431Z,7.40
2018-11-29T11:01:45.046Z,7.40
2018-11-29T11:04:13.645Z,7.40
2018-11-29T11:06:42.366Z,7.50
2018-11-29T11:09:11.459Z,7.50
2018-11-29T11:11:40.068Z,7.60
2018-11-29T11:14:08.662Z,7.60
2018-11-29T11:16:37.424Z,7.60
2018-11-29T11:19:06.144Z,7.60
2018-11-29T11:21:34.818Z,7.60
2018-11-29T11:24:03.501Z,7.70
2018-11-29T11:26:32.714Z,7.70
2018-11-29T11:29:01.397Z,7.60
2018-11-29T11:31:31.215Z,7.70
2018-11-29T11:33:58.654Z,7.70
2018-11-29T11:36:27.257Z,7.70
2018-11-29T11:38:55.901Z,7.70
2018-11-29T11:41:24.509Z,7.70
2018-11-29T11:43:53.128Z,7.70
2018-11-29T11:46:21.742Z,7.70
2018-11-29T11:48:50.331Z,7.70
2018-11-29T11:51:19.740Z,7.80
2018-11-29T11:53:48.393Z,7.70
2018-11-29T11:56:17.028Z,7.80
2018-11-29T11:58:45.876Z,7.70
2018-11-29T12:01:14.981Z,7.70
2018-11-29T12:03:43.626Z,7.70
2018-11-29T12:06:12.288Z,7.80
2018-11-29T12:08:40.924Z,7.70
2018-11-29T12:11:09.582Z,7.70
2018-11-29T12:13:38.139Z,7.70
2018-11-29T12:16:06.758Z,7.70
2018-11-29T12:18:35.419Z,7.80
2018-11-29T12:21:04.127Z,7.80
2018-11-29T12:23:32.792Z,7.80
2018-11-29T12:26:01.406Z,7.70
2018-11-29T12:28:30.019Z,7.70
2018-11-29T12:30:58.647Z,7.70
2018-11-29T12:33:27.243Z,7.70
2018-11-29T12:35:55.926Z,7.70
2018-11-29T12:38:24.504Z,7.70
2018-11-29T12:40:53.506Z,7.80
2018-11-29T12:43:22.082Z,7.80
2018-11-29T12:45:50.728Z,7.80
2018-11-29T12:48:19.427Z,7.80
2018-11-29T12:50:48.062Z,7.80
2018-11-29T12:53:16.747Z,7.80
2018-11-29T12:55:45.820Z,7.70
2018-11-29T12:58:14.415Z,7.70
2018-11-29T13:00:43.691Z,7.70
2018-11-29T13:03:12.410Z,7.70
2018-11-29T13:05:41.048Z,7.60
2018-11-29T13:08:10.155Z,7.60
2018-11-29T13:10:38.808Z,7.60
2018-11-29T13:13:07.622Z,7.60
2018-11-29T13:15:36.269Z,7.60
2018-11-29T13:18:07.305Z,7.60
2018-11-29T13:20:35.962Z,7.60
2018-11-29T13:23:04.681Z,7.60
2018-11-29T13:25:33.303Z,7.60
2018-11-29T13:28:01.934Z,7.50
2018-11-29T13:30:30.603Z,7.50
2018-11-29T13:32:59.214Z,7.50
2018-11-29T13:35:32.541Z,7.50
2018-11-29T13:38:02.971Z,7.40
2018-11-29T13:40:45.675Z,7.40
2018-11-29T13:43:14.398Z,7.40
2018-11-29T13:45:43.131Z,7.40
2018-11-29T13:48:12.654Z,7.40
2018-11-29T13:50:41.323Z,7.50
2018-11-29T13:53:10.067Z,7.50
2018-11-29T13:55:38.847Z,7.60
2018-11-29T13:58:07.330Z,7.60
2018-11-29T14:00:36.072Z,7.50
2018-11-29T14:03:12.227Z,7.40
2018-11-29T14:05:40.846Z,7.50
2018-11-29T14:08:10.096Z,7.30
2018-11-29T14:10:45.881Z,7.30
2018-11-29T14:13:14.539Z,7.20
2018-11-29T14:15:43.147Z,7.20
2018-11-29T14:18:11.732Z,7.10
2018-11-29T14:20:40.366Z,7.10
2018-11-29T14:23:09.001Z,7.10
2018-11-29T14:25:37.613Z,7.10
2018-11-29T14:28:07.135Z,7.10
2018-11-29T14:30:35.936Z,7.10
2018-11-29T14:33:04.742Z,7.10
2018-11-29T14:35:33.476Z,7.20
2018-11-29T14:38:16.347Z,7.20
2018-11-29T14:40:47.705Z,7.20
2018-11-29T14:43:16.423Z,7.20
2018-11-29T14:45:45.113Z,7.20
2018-11-29T14:48:14.348Z,7.20
2018-11-29T14:50:44.420Z,7.20
2018-11-29T14:53:13.299Z,7.20
2018-11-29T14:55:42.168Z,7.20
2018-11-29T14:58:12.403Z,7.10
2018-11-29T15:00:41.178Z,7.20
2018-11-29T15:03:12.476Z,7.20
2018-11-29T15:05:41.169Z,7.20
2018-11-29T15:08:10.445Z,7.20
2018-11-29T15:10:39.415Z,7.20
2018-11-29T15:13:09.461Z,7.20
2018-11-29T15:15:38.367Z,7.10
2018-11-29T15:18:07.846Z,7.10
2018-11-29T15:20:41.691Z,7.10
2018-11-29T15:23:11.524Z,7.10
2018-11-29T15:25:40.175Z,7.10
2018-11-29T15:28:08.852Z,7.10
2018-11-29T15:30:37.448Z,7.10
2018-11-29T15:33:06.929Z,7.00
2018-11-29T15:35:35.706Z,6.90
2018-11-29T15:38:04.512Z,6.90
2018-11-29T15:40:33.736Z,6.90
2018-11-29T15:43:03.041Z,6.90
2018-11-29T15:45:32.425Z,6.90
2018-11-29T15:48:01.755Z,6.90
2018-11-29T15:50:31.218Z,7.00
2018-11-29T15:53:00.783Z,7.00
2018-11-29T15:55:30.451Z,7.00
2018-11-29T15:57:59.612Z,7.00
2018-11-29T16:00:32.644Z,7.10
2018-11-29T16:03:03.459Z,7.10
2018-11-29T16:05:33.863Z,7.10
2018-11-29T16:08:03.342Z,7.10
2018-11-29T16:10:33.499Z,7.10
2018-11-29T16:13:03.078Z,7.10
2018-11-29T16:15:33.191Z,7.20
2018-11-29T16:18:02.385Z,7.10
2018-11-29T16:20:33.150Z,7.20
2018-11-29T16:23:01.842Z,7.20
2018-11-29T16:25:32.713Z,7.20
2018-11-29T16:28:01.399Z,7.20
2018-11-29T16:30:48.725Z,7.20
2018-11-29T16:33:24.241Z,7.20
2018-11-29T16:35:52.855Z,7.20
2018-11-29T16:38:21.590Z,7.20
2018-11-29T16:40:50.258Z,7.20
2018-11-29T16:43:18.844Z,7.20
2018-11-29T16:45:47.494Z,7.20
2018-11-29T16:48:16.152Z,7.10
2018-11-29T16:50:44.994Z,7.10
2018-11-29T16:53:14.242Z,7.10
2018-11-29T16:55:43.258Z,7.10
2018-11-29T16:58:16.623Z,7.10
2018-11-29T17:00:45.217Z,7.10
2018-11-29T17:03:15.184Z,7.10
2018-11-29T17:05:43.880Z,7.10
2018-11-29T17:08:12.509Z,7.10
2018-11-29T17:10:41.071Z,7.10
2018-11-29T17:13:12.544Z,7.00
2018-11-29T17:15:41.137Z,7.00
2018-11-29T17:18:09.742Z,7.00
2018-11-29T17:20:38.620Z,7.00
2018-11-29T17:23:08.646Z,7.00
2018-11-29T17:25:37.520Z,7.00
2018-11-29T17:28:07.013Z,7.00
2018-11-29T17:30:36.072Z,7.00
2018-11-29T17:33:05.330Z,6.90
2018-11-29T17:35:34.014Z,6.90
2018-11-29T17:38:02.604Z,6.90
2018-11-29T17:40:31.253Z,6.80
2018-11-29T17:42:59.810Z,6.80
2018-11-29T17:45:29.465Z,6.80
2018-11-29T17:48:02.508Z,6.70
2018-11-29T17:50:33.686Z,6.80
2018-11-29T17:53:03.158Z,6.80
2018-11-29T17:55:31.743Z,6.80
2018-11-29T17:58:15.431Z,6.80
2018-11-29T18:00:47.891Z,6.80
2018-11-29T18:03:21.650Z,6.90
2018-11-29T18:05:52.808Z,6.80
2018-11-29T18:08:21.416Z,6.80
2018-11-29T18:10:56.800Z,6.70
2018-11-29T18:13:27.591Z,6.70
2018-11-29T18:15:56.179Z,6.70
2018-11-29T18:18:24.773Z,6.60
2018-11-29T18:20:53.326Z,6.60
2018-11-29T18:23:21.936Z,6.50
2018-11-29T18:25:50.695Z,6.50
2018-11-29T18:28:19.462Z,6.40
2018-11-29T18:30:48.146Z,6.40
2018-11-29T18:33:16.783Z,6.30
2018-11-29T18:35:45.481Z,6.30
2018-11-29T18:38:14.147Z,6.30
2018-11-29T18:40:43.269Z,6.20
2018-11-29T18:43:12.165Z,6.30
2018-11-29T18:45:40.876Z,6.20
2018-11-29T18:48:10.518Z,6.20
2018-11-29T18:50:39.846Z,6.10
2018-11-29T18:53:08.546Z,6.10
2018-11-29T18:55:37.171Z,6.10
2018-11-29T18:58:06.700Z,6.10
2018-11-29T19:00:36.305Z,6.10
2018-11-29T19:03:05.244Z,6.00
2018-11-29T19:05:33.992Z,6.00
2018-11-29T19:08:02.595Z,6.00
2018-11-29T19:10:31.185Z,6.00
2018-11-29T19:13:05.916Z,5.90
2018-11-29T19:15:34.488Z,5.90
2018-11-29T19:18:03.221Z,6.00
2018-11-29T19:20:31.893Z,6.00
2018-11-29T19:23:00.703Z,5.90
2018-11-29T19:25:29.376Z,6.00
2018-11-29T19:28:02.003Z,5.90
2018-11-29T19:30:31.587Z,6.00
2018-11-29T19:33:11.047Z,6.00
2018-11-29T19:35:39.783Z,6.00
2018-11-29T19:38:08.412Z,5.90
2018-11-29T19:40:37.009Z,5.90
2018-11-29T19:43:08.202Z,5.80
2018-11-29T19:45:39.390Z,5.90
2018-11-29T19:48:09.388Z,6.00
2018-11-29T19:50:38.766Z,6.00
2018-11-29T19:53:10.666Z,6.00
2018-11-29T19:55:42.368Z,6.00
2018-11-29T19:58:11.570Z,6.00
2018-11-29T20:00:42.392Z,6.00
2018-11-29T20:03:12.703Z,6.00
2018-11-29T20:05:42.283Z,6.00
2018-11-29T20:08:11.794Z,6.00
2018-11-29T20:10:41.393Z,6.00
2018-11-29T20:13:17.626Z,6.00
2018-11-29T20:15:54.607Z,5.90
2018-11-29T20:18:25.074Z,5.90
2018-11-29T20:20:58.392Z,5.90
2018-11-29T20:23:28.910Z,5.90
2018-11-29T20:26:00.114Z,5.90
2018-11-29T20:28:31.668Z,5.90
2018-11-29T20:31:03.726Z,5.90
2018-11-29T20:33:35.846Z,5.90
2018-11-29T20:36:05.643Z,5.90
2018-11-29T20:38:35.981Z,5.90
2018-11-29T20:41:06.177Z,5.90
2018-11-29T20:43:35.593Z,5.90
2018-11-29T20:46:06.075Z,5.90
2018-11-29T20:48:35.505Z,5.80
2018-11-29T20:51:09.248Z,5.90
2018-11-29T20:53:41.485Z,5.80
2018-11-29T20:56:13.783Z,5.70
2018-11-29T20:58:43.456Z,5.70
2018-11-29T21:01:14.473Z,5.70
2018-11-29T21:03:47.969Z,5.70
2018-11-29T21:06:18.310Z,5.60
2018-11-29T21:09:20.110Z,5.60
2018-11-29T21:11:58.697Z,5.60
2018-11-29T21:14:30.017Z,5.60
2018-11-29T21:17:03.313Z,5.60
2018-11-29T21:22:48.479Z,5.50
2018-11-29T21:25:19.577Z,5.50
2018-11-29T21:27:49.092Z,5.50
2018-11-29T21:30:17.932Z,5.50
2018-11-29T21:32:46.881Z,5.50
2018-11-29T21:35:19.844Z,5.50
2018-11-29T21:37:48.581Z,5.50
2018-11-29T21:40:26.025Z,5.50
2018-11-29T21:42:54.632Z,5.50
2018-11-29T21:45:23.535Z,5.50
2018-11-29T21:47:52.995Z,5.50
2018-11-29T21:50:21.651Z,5.50
2018-11-29T21:52:50.287Z,5.60
2018-11-29T21:55:18.833Z,5.50
2018-11-29T21:57:47.758Z,5.60
2018-11-29T22:00:18.578Z,5.60
2018-11-29T22:02:49.811Z,5.60
2018-11-29T22:05:18.394Z,5.60
2018-11-29T22:07:47.167Z,5.60
2018-11-29T22:10:15.808Z,5.70
2018-11-29T22:12:44.475Z,5.70
2018-11-29T22:15:13.544Z,5.70
2018-11-29T22:17:53.302Z,5.70
2018-11-29T22:20:22.792Z,5.70
2018-11-29T22:22:51.420Z,5.70
2018-11-29T22:25:20.037Z,5.70
2018-11-29T22:27:48.764Z,5.70
2018-11-29T22:30:17.434Z,5.70
2018-11-29T22:32:46.428Z,5.70
2018-11-29T22:35:15.072Z,5.80
2018-11-29T22:37:43.708Z,5.80
2018-11-29T22:40:12.282Z,5.80
2018-11-29T22:42:40.942Z,5.80
2018-11-29T22:45:09.659Z,5.90
2018-11-29T22:47:38.326Z,5.90
2018-11-29T22:50:08.195Z,5.90
2018-11-29T22:52:36.967Z,5.90
2018-11-29T22:55:06.003Z,5.90
2018-11-29T22:57:34.678Z,5.90
2018-11-29T23:00:03.357Z,5.80
2018-11-29T23:02:32.004Z,5.80
2018-11-29T23:05:00.622Z,5.80
2018-11-29T23:07:29.636Z,5.80
2018-11-29T23:09:58.416Z,5.80
2018-11-29T23:12:27.206Z,5.80
2018-11-29T23:14:55.789Z,5.80
2018-11-29T23:17:24.377Z,5.80
2018-11-29T23:19:53.001Z,5.80
2018-11-29T23:22:21.550Z,5.80
2018-11-29T23:24:50.179Z,5.80
2018-11-29T23:27:18.802Z,5.70
2018-11-29T23:29:47.407Z,5.70
2018-11-29T23:32:16.035Z,5.60
2018-11-29T23:34:44.617Z,5.70
2018-11-29T23:37:13.189Z,5.70
2018-11-29T23:39:41.785Z,5.70
2018-11-29T23:42:10.381Z,5.70
2018-11-29T23:44:39.045Z,5.70
2018-11-29T23:47:07.677Z,5.70
2018-11-29T23:49:36.302Z,5.70
2018-11-29T23:52:05.232Z,5.70
2018-11-29T23:54:34.263Z,5.80
2018-11-29T23:57:02.923Z,5.80
2018-11-29T23:59:31.651Z,5.80
